Time;durP1;ratioP1;P1;durP2;ratioP2;P2;SDS_P1;SDS_P2;PMS_P1;PMS_P2;Temp;Humidity;BMP_temperature;BMP_pressure;BME280_temperature;BME280_humidity;BME280_pressure;Samples;Min_cycle;Max_cycle;Signal;HPM_P1;HPM_P2
2021/07/05 00:01:17;;;;;;;1.60;1.20;;;22.80;53.20;;;;;;5072114;28;20025;-73
2021/07/05 00:03:44;;;;;;;1.38;1.00;;;22.80;52.90;;;;;;5071975;28;20120;-72
2021/07/05 00:06:11;;;;;;;2.00;0.95;;;22.80;53.30;;;;;;5072882;28;20028;-73
2021/07/05 00:08:36;;;;;;;2.03;0.90;;;22.70;53.30;;;;;;5075313;28;20498;-72
2021/07/05 00:11:03;;;;;;;2.35;1.42;;;22.70;53.40;;;;;;5072052;28;20055;-72
2021/07/05 00:13:30;;;;;;;2.08;1.00;;;22.70;53.40;;;;;;5072015;28;20059;-72
2021/07/05 00:15:57;;;;;;;1.33;1.10;;;22.70;53.60;;;;;;5071688;28;20474;-72
2021/07/05 00:18:22;;;;;;;1.98;1.23;;;22.60;53.50;;;;;;5071894;28;20021;-73
2021/07/05 00:20:48;;;;;;;2.38;1.10;;;22.60;53.40;;;;;;5078063;28;20023;-72
2021/07/05 00:23:14;;;;;;;1.33;0.80;;;22.60;53.40;;;;;;5090782;28;20047;-72
2021/07/05 00:25:41;;;;;;;1.70;1.23;;;22.60;53.20;;;;;;5090941;28;20073;-72
2021/07/05 00:28:07;;;;;;;2.03;1.08;;;22.60;53.20;;;;;;5081141;28;20020;-72
2021/07/05 00:30:35;;;;;;;1.58;1.00;;;22.60;53.40;;;;;;5071627;28;20095;-72
2021/07/05 00:33:01;;;;;;;4.03;1.30;;;22.70;53.60;;;;;;5071852;28;20490;-71
2021/07/05 00:35:27;;;;;;;2.40;1.33;;;22.70;53.60;;;;;;5091427;28;20020;-72
2021/07/05 00:37:54;;;;;;;2.00;1.25;;;22.60;54.60;;;;;;5091964;28;20393;-73
2021/07/05 00:40:21;;;;;;;2.35;1.30;;;22.60;54.10;;;;;;5090702;28;20020;-72
2021/07/05 00:42:48;;;;;;;3.25;1.20;;;22.60;54.00;;;;;;5092075;28;20487;-72
2021/07/05 00:45:15;;;;;;;6.25;1.60;;;22.60;54.20;;;;;;5086047;28;20028;-72
2021/07/05 00:47:40;;;;;;;1.35;1.17;;;22.60;54.70;;;;;;5084252;28;20384;-72
2021/07/05 00:50:09;;;;;;;4.65;1.40;;;22.50;54.90;;;;;;5087898;28;20115;-71
2021/07/05 00:52:36;;;;;;;3.70;1.42;;;22.50;55.00;;;;;;5071762;28;20088;-72
2021/07/05 00:55:06;;;;;;;3.50;1.27;;;22.50;55.10;;;;;;5071497;28;20033;-72
2021/07/05 00:57:31;;;;;;;2.50;1.55;;;22.50;55.20;;;;;;5071707;28;20032;-72
2021/07/05 00:59:58;;;;;;;2.42;1.50;;;22.50;55.20;;;;;;5071904;28;20036;-72
2021/07/05 01:02:26;;;;;;;7.70;1.50;;;22.50;55.20;;;;;;5071628;28;20020;-72
2021/07/05 01:04:53;;;;;;;3.22;1.70;;;22.50;55.10;;;;;;5081335;28;20069;-72
2021/07/05 01:07:21;;;;;;;1.60;1.15;;;22.40;55.40;;;;;;5091079;28;20031;-72
2021/07/05 01:09:47;;;;;;;1.50;1.20;;;22.40;55.30;;;;;;5091018;28;20027;-72
2021/07/05 01:12:13;;;;;;;1.63;1.17;;;22.40;55.30;;;;;;5091571;28;20081;-72
2021/07/05 01:14:40;;;;;;;2.92;1.42;;;22.40;55.10;;;;;;5091584;28;20034;-72
2021/07/05 01:17:10;;;;;;;1.52;1.08;;;22.40;55.30;;;;;;5091704;28;20043;-73
2021/07/05 01:19:44;;;;;;;2.05;1.33;;;22.50;55.00;;;;;;5075232;28;20008;-72
2021/07/05 01:22:10;;;;;;;1.90;1.35;;;22.40;55.10;;;;;;5071756;28;20150;-72
2021/07/05 01:24:36;;;;;;;3.33;1.58;;;22.40;55.00;;;;;;5069972;28;20532;-72
2021/07/05 01:27:03;;;;;;;2.30;1.20;;;22.40;55.10;;;;;;5075698;28;20024;-73
2021/07/05 01:29:29;;;;;;;1.30;1.15;;;22.40;55.00;;;;;;5091360;28;20020;-72
2021/07/05 01:31:56;;;;;;;1.05;0.95;;;22.40;55.30;;;;;;5091411;28;20115;-72
2021/07/05 01:34:23;;;;;;;5.45;1.30;;;22.40;55.40;;;;;;5071104;28;20108;-72
2021/07/05 01:36:49;;;;;;;2.03;1.25;;;22.40;55.40;;;;;;5074891;28;20032;-72
2021/07/05 01:39:16;;;;;;;1.83;1.13;;;22.40;55.40;;;;;;5094997;28;20024;-71
2021/07/05 01:41:42;;;;;;;5.10;1.30;;;22.40;55.60;;;;;;5095017;28;20386;-72
2021/07/05 01:44:07;;;;;;;1.20;1.00;;;22.40;55.60;;;;;;5094668;28;20039;-72
2021/07/05 01:46:33;;;;;;;2.25;1.08;;;22.30;55.50;;;;;;5094919;28;20433;-72
2021/07/05 01:48:59;;;;;;;2.15;0.88;;;22.30;55.40;;;;;;5088120;28;20469;-72
2021/07/05 01:51:25;;;;;;;0.82;0.82;;;22.30;55.50;;;;;;5094887;28;20377;-73
2021/07/05 01:53:50;;;;;;;1.00;0.90;;;22.30;55.60;;;;;;5093473;28;20028;-73
2021/07/05 01:56:17;;;;;;;1.95;1.23;;;22.30;55.50;;;;;;5073244;28;20027;-72
2021/07/05 01:58:43;;;;;;;4.05;1.10;;;22.30;55.60;;;;;;5081512;28;20028;-72
2021/07/05 02:01:09;;;;;;;2.83;1.23;;;22.30;55.70;;;;;;5091602;28;20028;-73
2021/07/05 02:03:35;;;;;;;1.67;1.13;;;22.20;55.80;;;;;;5094524;28;20020;-72
2021/07/05 02:06:00;;;;;;;3.78;1.20;;;22.20;55.90;;;;;;5080209;28;20024;-72
2021/07/05 02:08:26;;;;;;;1.98;1.20;;;22.20;56.00;;;;;;5074213;28;20035;-72
2021/07/05 02:10:53;;;;;;;1.00;0.80;;;22.20;55.70;;;;;;5074192;28;20032;-71
2021/07/05 02:13:25;;;;;;;3.03;1.35;;;22.10;55.90;;;;;;5079117;28;20028;-72
2021/07/05 02:15:56;;;;;;;1.30;1.02;;;22.10;56.10;;;;;;5090367;28;20028;-72
2021/07/05 02:18:22;;;;;;;2.15;1.15;;;22.10;56.10;;;;;;5075453;28;20025;-72
2021/07/05 02:20:48;;;;;;;1.58;1.10;;;22.10;56.20;;;;;;5073560;28;20107;-72
2021/07/05 02:23:17;;;;;;;1.52;1.00;;;22.10;56.10;;;;;;5074979;28;20045;-72
2021/07/05 02:25:43;;;;;;;1.40;1.10;;;22.00;56.20;;;;;;5075497;28;20024;-71
2021/07/05 02:28:14;;;;;;;1.17;0.93;;;22.10;56.30;;;;;;5077330;28;20032;-72
2021/07/05 02:30:42;;;;;;;3.83;1.10;;;22.10;56.20;;;;;;5073540;28;20055;-73
2021/07/05 02:33:09;;;;;;;1.02;0.93;;;22.10;56.10;;;;;;5073748;28;20024;-72
2021/07/05 02:35:36;;;;;;;1.13;1.00;;;22.10;56.30;;;;;;5073005;28;20028;-73
2021/07/05 02:38:06;;;;;;;2.25;0.93;;;22.00;56.50;;;;;;5072899;28;20028;-72
2021/07/05 02:40:35;;;;;;;1.23;1.13;;;22.10;56.80;;;;;;5074250;28;20044;-72
2021/07/05 02:43:03;;;;;;;4.22;0.95;;;22.10;56.80;;;;;;5074503;28;20377;-73
2021/07/05 02:45:30;;;;;;;2.00;1.00;;;22.00;56.80;;;;;;5075272;28;20068;-72
2021/07/05 02:47:59;;;;;;;1.35;0.82;;;22.10;56.90;;;;;;5094738;28;20035;-72
2021/07/05 02:50:25;;;;;;;1.05;0.93;;;22.00;56.90;;;;;;5094579;28;20052;-72
2021/07/05 02:52:52;;;;;;;3.60;0.68;;;22.00;57.00;;;;;;5094724;28;20047;-73
2021/07/05 02:55:18;;;;;;;0.80;0.70;;;22.00;56.40;;;;;;5093092;28;20066;-71
2021/07/05 02:57:46;;;;;;;1.58;1.00;;;22.00;56.70;;;;;;5074302;28;20158;-72
2021/07/05 03:00:18;;;;;;;0.70;0.70;;;22.00;56.70;;;;;;5074330;28;20012;-71
2021/07/05 03:02:46;;;;;;;4.50;0.90;;;22.00;56.50;;;;;;5091074;28;20473;-73
2021/07/05 03:05:14;;;;;;;3.33;0.70;;;22.00;56.30;;;;;;5094365;28;20435;-72
2021/07/05 03:07:41;;;;;;;1.23;0.70;;;22.10;56.20;;;;;;5094363;28;20384;-72
2021/07/05 03:10:09;;;;;;;2.85;1.00;;;22.10;56.40;;;;;;5081162;28;20023;-72
2021/07/05 03:12:35;;;;;;;2.78;0.70;;;22.10;56.40;;;;;;5074373;28;20093;-72
2021/07/05 03:15:02;;;;;;;1.75;0.65;;;22.10;56.10;;;;;;5073916;28;20031;-73
2021/07/05 03:17:28;;;;;;;0.73;0.70;;;22.10;56.10;;;;;;5075496;28;20024;-72
2021/07/05 03:19:54;;;;;;;1.00;0.90;;;22.10;55.90;;;;;;5094179;28;20016;-71
2021/07/05 03:22:19;;;;;;;5.22;0.85;;;22.10;55.90;;;;;;5094180;28;20481;-72
2021/07/05 03:24:45;;;;;;;2.63;1.00;;;22.10;56.00;;;;;;5094075;28;20024;-71
2021/07/05 03:27:12;;;;;;;1.52;0.80;;;22.10;56.00;;;;;;5093966;28;20030;-72
2021/07/05 03:29:38;;;;;;;1.30;0.90;;;22.10;56.00;;;;;;5092534;28;20028;-72
2021/07/05 03:32:06;;;;;;;0.98;0.80;;;22.10;56.00;;;;;;5093483;28;20020;-72
2021/07/05 03:34:33;;;;;;;1.67;0.80;;;22.10;56.10;;;;;;5093580;28;20108;-73
2021/07/05 03:36:59;;;;;;;1.33;0.90;;;22.20;56.10;;;;;;5093855;28;20024;-72
2021/07/05 03:39:25;;;;;;;0.93;0.88;;;22.10;56.00;;;;;;5093734;28;20070;-71
2021/07/05 03:41:52;;;;;;;2.75;0.98;;;22.10;55.90;;;;;;5077476;28;20020;-72
2021/07/05 03:44:18;;;;;;;1.55;1.08;;;22.10;56.00;;;;;;5072410;28;20119;-71
2021/07/05 03:46:44;;;;;;;1.23;1.05;;;22.00;55.80;;;;;;5073261;28;20103;-72
2021/07/05 03:49:09;;;;;;;1.23;0.80;;;22.10;55.90;;;;;;5073086;28;20467;-73
2021/07/05 03:51:36;;;;;;;1.13;0.75;;;22.00;55.90;;;;;;5073267;28;20430;-71
2021/07/05 03:54:02;;;;;;;0.68;0.63;;;22.00;55.80;;;;;;5073003;28;20024;-71
2021/07/05 03:56:27;;;;;;;5.05;1.20;;;22.00;55.90;;;;;;5073184;28;20058;-72
2021/07/05 03:58:54;;;;;;;1.42;0.73;;;22.00;55.90;;;;;;5071434;28;20052;-73
2021/07/05 04:01:21;;;;;;;0.77;0.77;;;22.00;55.90;;;;;;5089821;28;20409;-72
2021/07/05 04:03:47;;;;;;;3.85;0.80;;;22.00;56.00;;;;;;5093287;28;20363;-72
2021/07/05 04:06:13;;;;;;;1.85;0.75;;;22.00;56.00;;;;;;5091901;28;20042;-72
2021/07/05 04:08:40;;;;;;;4.18;0.68;;;22.00;56.00;;;;;;5091413;28;20442;-72
2021/07/05 04:11:06;;;;;;;2.05;0.70;;;21.90;56.00;;;;;;5081284;28;20394;-72
2021/07/05 04:13:32;;;;;;;3.83;0.80;;;21.90;56.10;;;;;;5072866;28;20038;-72
2021/07/05 04:15:59;;;;;;;1.63;0.70;;;21.90;56.10;;;;;;5072332;28;20035;-72
2021/07/05 04:18:25;;;;;;;2.60;0.85;;;21.90;56.10;;;;;;5072913;28;20021;-71
2021/07/05 04:20:51;;;;;;;1.42;0.80;;;21.90;56.20;;;;;;5071533;28;20199;-72
2021/07/05 04:23:17;;;;;;;1.17;0.68;;;21.90;56.20;;;;;;5071479;28;20028;-73
2021/07/05 04:25:43;;;;;;;2.40;0.88;;;21.90;56.10;;;;;;5072736;28;20025;-72
2021/07/05 04:28:09;;;;;;;3.55;0.80;;;21.90;56.00;;;;;;5072738;28;20228;-72
2021/07/05 04:30:36;;;;;;;2.25;0.70;;;21.90;56.10;;;;;;5072699;28;20031;-72
2021/07/05 04:33:04;;;;;;;1.08;0.80;;;21.90;56.10;;;;;;5081044;28;20030;-72
2021/07/05 04:35:30;;;;;;;3.22;0.80;;;21.90;55.90;;;;;;5092072;28;20035;-72
2021/07/05 04:37:57;;;;;;;0.68;0.65;;;21.90;56.00;;;;;;5092813;28;20489;-73
2021/07/05 04:40:30;;;;;;;0.57;0.57;;;21.90;55.90;;;;;;5073492;28;20053;-72
2021/07/05 04:42:56;;;;;;;1.13;0.90;;;22.00;55.90;;;;;;5072530;28;20036;-72
2021/07/05 04:45:26;;;;;;;4.35;0.80;;;22.00;55.80;;;;;;5079240;28;20031;-72
2021/07/05 04:47:52;;;;;;;1.60;0.88;;;22.00;55.70;;;;;;5093110;28;20020;-72
2021/07/05 04:50:18;;;;;;;1.50;0.65;;;22.00;55.60;;;;;;5091409;28;20075;-73
2021/07/05 04:52:45;;;;;;;2.53;1.00;;;22.10;55.60;;;;;;5072428;28;20033;-74
2021/07/05 04:55:13;;;;;;;0.75;0.65;;;22.10;55.60;;;;;;5072121;28;20032;-72
2021/07/05 04:57:41;;;;;;;3.75;0.80;;;22.10;55.40;;;;;;5071163;28;20060;-72
2021/07/05 05:00:14;;;;;;;1.40;0.90;;;22.10;55.40;;;;;;5090667;28;20095;-72
2021/07/05 05:02:40;;;;;;;1.00;0.60;;;22.00;55.40;;;;;;5092632;28;20016;-72
2021/07/05 05:05:07;;;;;;;1.00;0.70;;;22.10;55.40;;;;;;5092505;28;20066;-72
2021/07/05 05:07:33;;;;;;;5.15;0.75;;;22.10;55.40;;;;;;5072890;28;20036;-72
2021/07/05 05:10:01;;;;;;;3.13;0.60;;;22.10;55.40;;;;;;5072118;28;20017;-71
2021/07/05 05:12:28;;;;;;;1.40;0.80;;;22.10;55.40;;;;;;5073583;28;20029;-72
2021/07/05 05:14:55;;;;;;;2.10;0.50;;;22.10;55.30;;;;;;5075824;28;20055;-72
2021/07/05 05:17:21;;;;;;;1.60;0.88;;;22.10;55.30;;;;;;5076031;28;20050;-72
2021/07/05 05:19:46;;;;;;;2.53;0.80;;;22.10;55.30;;;;;;5075897;28;20020;-72
2021/07/05 05:22:12;;;;;;;0.63;0.55;;;22.10;55.20;;;;;;5074750;28;20028;-72
2021/07/05 05:24:38;;;;;;;0.93;0.70;;;22.20;55.20;;;;;;5076038;28;20024;-72
2021/07/05 05:27:04;;;;;;;4.25;1.30;;;22.20;55.20;;;;;;5074491;28;20531;-72
2021/07/05 05:29:30;;;;;;;1.50;0.85;;;22.20;55.10;;;;;;5075759;28;20091;-71
2021/07/05 05:31:56;;;;;;;0.73;0.65;;;22.20;55.10;;;;;;5075905;28;20074;-72
2021/07/05 05:34:22;;;;;;;1.75;0.70;;;22.30;55.10;;;;;;5075774;28;20029;-72
2021/07/05 05:36:48;;;;;;;1.70;0.68;;;22.30;55.10;;;;;;5075373;28;20467;-72
2021/07/05 05:39:13;;;;;;;0.52;0.52;;;22.30;55.10;;;;;;5075243;28;20135;-72
2021/07/05 05:41:39;;;;;;;1.30;0.70;;;22.40;55.00;;;;;;5075424;28;20032;-72
2021/07/05 05:44:05;;;;;;;3.45;0.88;;;22.40;55.00;;;;;;5075543;28;20071;-72
2021/07/05 05:46:34;;;;;;;1.98;0.55;;;22.50;55.00;;;;;;5075431;28;20025;-72
2021/07/05 05:49:02;;;;;;;4.75;1.10;;;22.50;54.80;;;;;;5095456;28;20452;-72
2021/07/05 05:51:33;;;;;;;1.30;0.70;;;22.60;54.80;;;;;;5095484;28;20107;-72
2021/07/05 05:53:59;;;;;;;3.55;0.73;;;22.70;54.60;;;;;;5079562;28;20016;-73
2021/07/05 05:56:26;;;;;;;1.48;0.90;;;22.70;54.40;;;;;;5094982;28;20027;-73
2021/07/05 05:58:54;;;;;;;3.70;0.68;;;22.80;54.20;;;;;;5093623;28;20019;-72
2021/07/05 06:01:20;;;;;;;1.52;0.77;;;22.80;54.20;;;;;;5082617;28;20021;-72
2021/07/05 06:03:46;;;;;;;1.50;0.70;;;22.90;54.10;;;;;;5089048;28;20440;-72
2021/07/05 06:06:12;;;;;;;2.00;0.70;;;22.90;53.90;;;;;;5095295;28;20495;-72
2021/07/05 06:08:37;;;;;;;1.23;0.75;;;23.00;53.90;;;;;;5093129;28;20028;-73
2021/07/05 06:11:03;;;;;;;0.60;0.43;;;23.10;53.80;;;;;;5094060;28;20026;-73
2021/07/05 06:13:29;;;;;;;1.73;0.70;;;23.20;53.90;;;;;;5083283;28;20116;-72
2021/07/05 06:15:55;;;;;;;1.88;0.60;;;23.30;53.80;;;;;;5074626;28;20500;-73
2021/07/05 06:18:21;;;;;;;1.40;0.73;;;23.40;53.50;;;;;;5074897;28;20089;-72
2021/07/05 06:20:46;;;;;;;2.17;0.63;;;23.50;53.30;;;;;;5073419;28;20066;-71
2021/07/05 06:23:25;;;;;;;1.27;0.60;;;23.60;53.20;;;;;;5074404;28;20099;-72
2021/07/05 06:25:52;;;;;;;2.35;0.52;;;23.70;53.00;;;;;;5074661;28;20025;-72
2021/07/05 06:28:20;;;;;;;1.02;0.60;;;23.90;52.90;;;;;;5073162;28;20067;-71
2021/07/05 06:30:46;;;;;;;0.77;0.63;;;24.00;52.40;;;;;;5077211;28;20028;-72
2021/07/05 06:33:13;;;;;;;2.03;0.95;;;24.10;52.00;;;;;;5074196;28;20175;-71
2021/07/05 06:35:40;;;;;;;1.10;0.70;;;24.20;51.70;;;;;;5086417;28;20146;-71
2021/07/05 06:38:08;;;;;;;2.22;0.60;;;24.40;51.00;;;;;;5075809;28;20086;-72
2021/07/05 06:40:34;;;;;;;2.10;0.70;;;24.40;50.90;;;;;;5073892;28;20024;-71
2021/07/05 06:43:01;;;;;;;2.13;0.80;;;24.50;50.90;;;;;;5078839;28;20027;-72
2021/07/05 06:45:26;;;;;;;1.02;0.88;;;24.50;50.60;;;;;;5085821;28;20462;-71
2021/07/05 06:47:52;;;;;;;3.50;0.60;;;24.60;50.20;;;;;;5074295;28;20077;-72
2021/07/05 06:50:18;;;;;;;1.20;0.50;;;24.70;50.10;;;;;;5072706;28;20087;-72
2021/07/05 06:52:44;;;;;;;3.67;1.10;;;24.80;50.40;;;;;;5078858;28;20063;-71
2021/07/05 06:55:12;;;;;;;1.98;0.77;;;24.80;49.70;;;;;;5092603;28;20024;-72
2021/07/05 06:57:39;;;;;;;3.47;0.90;;;24.90;49.70;;;;;;5092731;28;20031;-72
2021/07/05 07:00:11;;;;;;;1.77;0.80;;;25.00;49.00;;;;;;5092570;28;20362;-71
2021/07/05 07:02:38;;;;;;;3.35;0.80;;;25.10;49.00;;;;;;5079812;28;20024;-72
2021/07/05 07:05:10;;;;;;;1.83;0.82;;;25.20;48.80;;;;;;5082562;28;20485;-71
2021/07/05 07:07:37;;;;;;;0.60;0.60;;;25.20;48.60;;;;;;5091715;28;20371;-72
2021/07/05 07:10:04;;;;;;;1.02;0.70;;;25.30;48.60;;;;;;5093742;28;20032;-71
2021/07/05 07:12:30;;;;;;;1.55;0.90;;;25.40;48.50;;;;;;5091021;28;20837;-71
2021/07/05 07:14:56;;;;;;;3.28;1.70;;;25.50;47.90;;;;;;5073622;28;20025;-71
2021/07/05 07:19:59;;;;;;;2.17;1.17;;;25.60;47.80;;;;;;5093918;28;20026;-71
2021/07/05 07:22:25;;;;;;;1.08;0.70;;;25.70;47.30;;;;;;5091855;28;20433;-71
2021/07/05 07:24:51;;;;;;;3.95;1.10;;;25.80;47.60;;;;;;5090833;28;20043;-72
2021/07/05 07:27:16;;;;;;;5.32;0.80;;;25.90;47.20;;;;;;5073329;28;20574;-71
2021/07/05 07:29:42;;;;;;;2.42;0.68;;;26.00;46.90;;;;;;5075266;28;20059;-71
2021/07/05 07:32:08;;;;;;;1.73;0.85;;;26.00;46.70;;;;;;5080201;28;20031;-71
2021/07/05 07:34:35;;;;;;;2.05;0.85;;;26.10;46.60;;;;;;5091736;28;20016;-71
2021/07/05 07:37:05;;;;;;;2.50;0.90;;;26.10;46.10;;;;;;5082038;28;20039;-71
2021/07/05 07:39:36;;;;;;;2.05;0.73;;;26.10;46.20;;;;;;5090634;28;20013;-71
2021/07/05 07:42:03;;;;;;;1.08;0.90;;;26.10;45.90;;;;;;5075052;28;20016;-72
2021/07/05 07:44:29;;;;;;;2.15;0.88;;;26.10;45.90;;;;;;5092728;28;20039;-72
2021/07/05 07:46:55;;;;;;;0.80;0.80;;;26.10;45.70;;;;;;5091105;28;20024;-72
2021/07/05 07:49:21;;;;;;;1.85;0.65;;;26.10;45.40;;;;;;5092845;28;20432;-71
2021/07/05 07:51:47;;;;;;;4.68;1.10;;;26.10;45.80;;;;;;5093476;28;20024;-71
2021/07/05 07:54:13;;;;;;;4.03;0.70;;;26.10;45.10;;;;;;5093150;28;20553;-72
2021/07/05 07:56:39;;;;;;;0.50;0.50;;;26.10;45.20;;;;;;5092798;28;20354;-72
2021/07/05 07:59:05;;;;;;;0.98;0.60;;;26.10;45.20;;;;;;5088102;28;20027;-71
2021/07/05 08:01:31;;;;;;;1.77;0.90;;;26.10;44.70;;;;;;5093204;28;20069;-71
2021/07/05 08:03:57;;;;;;;1.65;0.70;;;26.20;44.80;;;;;;5089553;28;20505;-73
2021/07/05 08:06:23;;;;;;;1.17;0.70;;;26.20;45.10;;;;;;5091618;28;20028;-71
2021/07/05 08:08:51;;;;;;;3.25;0.70;;;26.30;45.30;;;;;;5091847;28;20024;-71
2021/07/05 08:11:18;;;;;;;2.33;0.85;;;26.30;44.80;;;;;;5090125;28;20025;-71
2021/07/05 08:13:44;;;;;;;2.15;0.95;;;26.50;44.70;;;;;;5076877;28;20137;-72
2021/07/05 08:16:10;;;;;;;1.88;0.70;;;26.50;43.80;;;;;;5071392;28;20028;-71
2021/07/05 08:18:36;;;;;;;1.38;0.70;;;26.50;43.30;;;;;;5072692;28;20051;-72
2021/07/05 08:21:03;;;;;;;1.40;0.60;;;26.50;43.20;;;;;;5072735;28;20103;-72
2021/07/05 08:23:29;;;;;;;2.00;0.98;;;26.50;43.20;;;;;;5072795;28;20423;-72
2021/07/05 08:25:55;;;;;;;3.72;0.73;;;26.50;43.10;;;;;;5074860;28;20036;-72
2021/07/05 08:28:23;;;;;;;0.75;0.60;;;26.30;42.50;;;;;;5072789;28;20057;-73
2021/07/05 08:30:50;;;;;;;1.52;0.68;;;26.30;43.10;;;;;;5075768;28;20074;-72
2021/07/05 08:33:16;;;;;;;1.80;0.70;;;26.20;42.90;;;;;;5072365;28;20101;-72
2021/07/05 08:35:41;;;;;;;1.98;0.63;;;26.20;43.50;;;;;;5086765;28;20387;-72
2021/07/05 08:38:07;;;;;;;2.03;0.70;;;26.10;43.20;;;;;;5091803;28;20024;-72
2021/07/05 08:40:33;;;;;;;1.45;0.85;;;26.10;43.40;;;;;;5091132;28;20470;-73
2021/07/05 08:42:59;;;;;;;1.88;0.70;;;26.10;43.50;;;;;;5087107;28;20032;-73
2021/07/05 08:45:25;;;;;;;2.38;0.80;;;26.10;43.70;;;;;;5076659;28;20024;-72
2021/07/05 08:47:53;;;;;;;3.88;1.00;;;26.10;43.80;;;;;;5070993;28;20031;-73
2021/07/05 08:50:21;;;;;;;3.92;1.20;;;26.10;43.80;;;;;;5085071;28;20048;-72
2021/07/05 08:52:47;;;;;;;1.60;0.65;;;26.10;43.50;;;;;;5083879;28;20016;-72
2021/07/05 08:55:15;;;;;;;2.03;0.90;;;26.10;43.70;;;;;;5073697;28;20112;-73
2021/07/05 08:57:41;;;;;;;1.10;0.68;;;26.20;43.50;;;;;;5077791;28;20016;-72
2021/07/05 09:00:13;;;;;;;1.35;0.80;;;26.30;43.20;;;;;;5086569;28;20058;-71
2021/07/05 09:02:39;;;;;;;5.32;1.20;;;26.30;44.20;;;;;;5075547;28;20099;-71
2021/07/05 09:05:06;;;;;;;1.30;1.15;;;26.30;43.00;;;;;;5072233;28;20044;-71
2021/07/05 09:07:32;;;;;;;2.13;0.90;;;26.30;43.20;;;;;;5077474;28;20036;-71
2021/07/05 09:10:07;;;;;;;0.95;0.70;;;26.30;43.00;;;;;;5087738;28;20047;-71
2021/07/05 09:12:33;;;;;;;1.40;0.70;;;26.40;43.00;;;;;;5089192;28;20486;-72
2021/07/05 09:15:16;;;;;;;1.23;0.65;;;26.40;42.70;;;;;;5090205;28;20504;-71
2021/07/05 09:17:43;;;;;;;1.10;0.63;;;26.40;42.70;;;;;;5088367;28;20086;-72
2021/07/05 09:20:15;;;;;;;4.57;0.90;;;26.50;42.90;;;;;;5093541;28;20035;-72
2021/07/05 09:23:11;;;;;;;4.82;0.88;;;26.60;42.70;;;;;;5074526;28;20396;-71
2021/07/05 09:25:42;;;;;;;1.48;0.70;;;26.60;42.30;;;;;;5067926;28;20036;-71
2021/07/05 09:28:09;;;;;;;1.88;0.77;;;26.70;42.70;;;;;;5088698;28;20056;-71
2021/07/05 09:30:45;;;;;;;1.98;0.65;;;26.70;41.50;;;;;;5090247;28;20355;-71
2021/07/05 09:33:24;;;;;;;2.75;1.20;;;26.90;41.60;;;;;;5078535;28;20493;-72
2021/07/05 09:35:56;;;;;;;1.25;0.73;;;27.00;41.50;;;;;;5081212;28;20028;-73
2021/07/05 09:38:43;;;;;;;6.45;1.40;;;27.20;41.40;;;;;;5072068;28;20029;-72
2021/07/05 09:41:28;;;;;;;7.05;1.58;;;27.30;40.10;;;;;;5071715;28;20013;-73
2021/07/05 09:44:00;;;;;;;1.83;0.88;;;27.40;40.00;;;;;;5075525;28;20112;-72
2021/07/05 09:46:51;;;;;;;3.83;1.02;;;27.50;39.70;;;;;;5073236;28;20378;-73
2021/07/05 09:49:28;;;;;;;5.35;1.77;;;27.50;40.10;;;;;;5071592;28;20048;-72
2021/07/05 09:52:14;;;;;;;2.30;1.40;;;27.50;39.10;;;;;;5080159;28;20031;-73
2021/07/05 09:54:46;;;;;;;3.10;0.82;;;27.50;39.50;;;;;;5090682;28;20024;-72
2021/07/05 09:57:28;;;;;;;2.53;0.75;;;27.50;39.10;;;;;;5092342;28;20024;-72
2021/07/05 09:59:55;;;;;;;2.13;0.80;;;27.40;39.20;;;;;;5095648;28;20190;-72
2021/07/05 10:02:21;;;;;;;2.30;0.85;;;27.40;39.20;;;;;;5095524;28;20024;-73
2021/07/05 10:04:48;;;;;;;1.50;0.80;;;27.30;39.30;;;;;;5095319;28;20031;-73
2021/07/05 10:07:15;;;;;;;3.17;0.80;;;27.20;39.80;;;;;;5095283;28;20054;-72
2021/07/05 10:09:48;;;;;;;1.00;0.47;;;27.20;39.60;;;;;;5095273;28;20091;-72
2021/07/05 10:12:26;;;;;;;2.47;1.27;;;27.20;39.70;;;;;;5093502;28;20027;-72
2021/07/05 10:15:03;;;;;;;4.20;0.98;;;27.20;39.80;;;;;;5074883;28;20282;-72
2021/07/05 10:17:36;;;;;;;0.68;0.68;;;27.10;40.00;;;;;;5075062;28;20020;-72
2021/07/05 10:20:07;;;;;;;0.63;0.60;;;27.10;40.10;;;;;;5074982;28;20020;-72
2021/07/05 10:22:33;;;;;;;1.30;0.80;;;27.10;39.90;;;;;;5075020;28;20044;-73
2021/07/05 10:24:59;;;;;;;2.92;0.75;;;27.10;39.90;;;;;;5074807;28;20029;-72
2021/07/05 10:27:25;;;;;;;3.40;0.90;;;27.10;39.10;;;;;;5074596;28;20028;-73
2021/07/05 10:29:51;;;;;;;7.00;1.00;;;27.10;39.30;;;;;;5073257;28;20024;-72
2021/07/05 10:32:18;;;;;;;1.33;0.80;;;27.10;39.20;;;;;;5075793;28;20073;-72
2021/07/05 10:34:49;;;;;;;1.80;0.90;;;27.10;38.90;;;;;;5072767;28;20021;-72
2021/07/05 10:37:25;;;;;;;1.70;1.05;;;27.00;39.30;;;;;;5074220;28;20024;-73
2021/07/05 10:39:51;;;;;;;1.33;0.70;;;27.00;39.70;;;;;;5074500;28;20386;-73
2021/07/05 10:42:31;;;;;;;2.55;1.42;;;27.00;39.20;;;;;;5074878;28;20032;-72
2021/07/05 10:44:57;;;;;;;2.00;1.15;;;27.10;39.30;;;;;;5074176;28;20028;-73
2021/07/05 10:47:42;;;;;;;3.08;1.08;;;27.10;39.50;;;;;;5074318;28;20090;-72
2021/07/05 10:50:08;;;;;;;1.75;0.80;;;27.10;39.90;;;;;;5079596;28;20040;-72
2021/07/05 10:52:48;;;;;;;1.33;0.70;;;27.10;39.80;;;;;;5094431;28;20028;-72
2021/07/05 10:55:53;;;;;;;1.00;0.65;;;27.10;39.50;;;;;;5094378;28;20016;-72
2021/07/05 10:58:30;;;;;;;0.88;0.60;;;27.20;39.20;;;;;;5093888;28;20040;-73
2021/07/05 11:00:58;;;;;;;1.77;1.60;;;27.20;39.10;;;;;;5094302;28;20022;-72
2021/07/05 11:03:36;;;;;;;2.30;1.00;;;27.20;39.10;;;;;;5094112;28;20027;-72
2021/07/05 11:06:25;;;;;;;1.52;0.77;;;27.30;39.20;;;;;;5092905;28;20115;-72
2021/07/05 11:08:52;;;;;;;0.43;0.43;;;27.20;38.90;;;;;;5093407;28;20024;-72
2021/07/05 11:11:24;;;;;;;2.10;0.73;;;27.40;38.90;;;;;;5094111;28;20024;-72
2021/07/05 11:14:16;;;;;;;5.78;0.80;;;27.40;38.90;;;;;;5077787;28;20116;-72
2021/07/05 11:16:55;;;;;;;1.50;0.70;;;27.50;39.10;;;;;;5094339;28;20054;-72
2021/07/05 11:19:39;;;;;;;3.17;0.80;;;27.50;38.90;;;;;;5094356;28;20023;-72
2021/07/05 11:22:18;;;;;;;2.42;0.85;;;27.60;38.50;;;;;;5094146;28;20016;-72
2021/07/05 11:24:50;;;;;;;1.80;0.85;;;27.60;38.50;;;;;;5092706;28;20028;-72
2021/07/05 11:27:46;;;;;;;1.60;0.82;;;27.70;38.50;;;;;;5092856;28;20066;-72
2021/07/05 11:30:27;;;;;;;2.20;0.90;;;27.80;38.40;;;;;;5094044;28;20304;-72
2021/07/05 11:33:01;;;;;;;5.05;0.90;;;27.90;38.60;;;;;;5092472;28;20024;-72
2021/07/05 11:35:35;;;;;;;2.40;0.93;;;28.00;37.70;;;;;;5093892;28;20027;-73
2021/07/05 11:38:23;;;;;;;2.15;0.80;;;28.10;37.00;;;;;;5092624;28;20020;-72
2021/07/05 11:40:54;;;;;;;1.33;0.80;;;28.40;37.10;;;;;;5093771;28;20012;-73
2021/07/05 11:43:40;;;;;;;0.80;0.50;;;28.50;36.60;;;;;;5081090;28;20096;-73
2021/07/05 11:46:06;;;;;;;0.75;0.60;;;28.70;37.10;;;;;;5073392;28;20029;-73
2021/07/05 11:48:41;;;;;;;1.25;0.70;;;28.90;36.10;;;;;;5076808;28;20069;-73
2021/07/05 11:51:28;;;;;;;2.58;0.90;;;29.10;36.70;;;;;;5086797;28;20478;-72
2021/07/05 11:54:13;;;;;;;0.77;0.52;;;29.40;36.30;;;;;;5073147;28;20070;-72
2021/07/05 11:56:50;;;;;;;1.77;0.80;;;29.60;34.50;;;;;;5072257;28;20035;-74
2021/07/05 11:59:26;;;;;;;4.10;0.98;;;29.70;34.80;;;;;;5072325;28;20021;-73
2021/07/05 12:01:57;;;;;;;2.17;0.85;;;29.80;34.50;;;;;;5086736;28;20107;-74
2021/07/05 12:04:32;;;;;;;3.90;0.80;;;29.90;33.90;;;;;;5092074;28;20048;-74
2021/07/05 12:06:59;;;;;;;1.48;0.73;;;30.00;34.00;;;;;;5091653;28;20029;-73
2021/07/05 12:09:30;;;;;;;1.13;0.65;;;30.20;33.50;;;;;;5085465;28;20047;-73
2021/07/05 12:11:58;;;;;;;0.98;0.47;;;30.40;33.70;;;;;;5072432;28;20021;-73
2021/07/05 12:14:26;;;;;;;2.17;0.70;;;30.60;32.90;;;;;;5091903;28;20023;-73
2021/07/05 12:16:55;;;;;;;1.25;0.75;;;30.70;32.70;;;;;;5090430;28;20016;-72
2021/07/05 12:19:22;;;;;;;0.60;0.60;;;30.80;32.70;;;;;;5092817;28;20027;-72
2021/07/05 12:21:54;;;;;;;3.65;0.73;;;31.00;32.50;;;;;;5090539;28;20031;-72
2021/07/05 12:24:21;;;;;;;1.88;0.95;;;31.20;31.00;;;;;;5091589;28;20024;-73
2021/07/05 12:27:09;;;;;;;1.70;0.60;;;31.30;32.20;;;;;;5088118;28;20024;-73
2021/07/05 12:29:45;;;;;;;2.17;0.70;;;31.50;32.60;;;;;;5089333;28;20489;-73
2021/07/05 12:32:15;;;;;;;1.67;0.60;;;31.70;31.20;;;;;;5086211;28;20026;-73
2021/07/05 12:34:45;;;;;;;0.90;0.70;;;31.90;30.80;;;;;;5087646;28;20119;-73
2021/07/05 12:37:31;;;;;;;2.40;0.75;;;32.20;31.10;;;;;;5087589;28;20107;-73
2021/07/05 12:40:24;;;;;;;1.90;0.70;;;32.40;30.00;;;;;;5090115;28;20512;-73
2021/07/05 12:43:03;;;;;;;1.30;0.70;;;32.70;30.00;;;;;;5079497;28;20032;-74
2021/07/05 12:45:35;;;;;;;0.80;0.68;;;33.00;29.80;;;;;;5085555;28;20485;-74
2021/07/05 12:48:00;;;;;;;1.15;0.60;;;33.30;29.90;;;;;;5090471;28;20488;-73
2021/07/05 12:50:33;;;;;;;1.75;0.50;;;33.50;29.30;;;;;;5090532;28;20113;-74
2021/07/05 12:53:02;;;;;;;1.58;0.73;;;33.80;28.90;;;;;;5078018;28;20077;-74
2021/07/05 12:55:28;;;;;;;0.88;0.50;;;33.90;28.40;;;;;;5090414;28;20028;-74
2021/07/05 12:57:55;;;;;;;3.78;0.75;;;34.00;27.60;;;;;;5085320;28;20032;-73
2021/07/05 13:00:26;;;;;;;1.30;0.60;;;33.90;27.10;;;;;;5079962;28;20382;-74